createdAt,value
2022-09-14T00:01:25.333Z,7.03
2022-09-14T00:02:57.981Z,7.32
2022-09-14T00:04:30.244Z,7.67
2022-09-14T00:06:07.173Z,7.18
2022-09-14T00:07:39.180Z,7.00
2022-09-14T00:09:20.118Z,7.20
2022-09-14T00:10:52.100Z,7.75
2022-09-14T00:12:25.228Z,8.50
2022-09-14T00:13:58.711Z,8.40
2022-09-14T00:17:02.771Z,6.70
2022-09-14T00:18:35.400Z,6.90
2022-09-14T00:20:08.020Z,7.60
2022-09-14T00:21:40.287Z,7.50
2022-09-14T00:23:12.280Z,7.72
2022-09-14T00:24:44.262Z,6.72
2022-09-14T00:26:18.574Z,7.60
2022-09-14T00:27:50.528Z,8.50
2022-09-14T00:29:27.083Z,7.13
2022-09-14T00:31:00.614Z,8.55
2022-09-14T00:32:32.656Z,7.53
2022-09-14T00:34:06.368Z,8.63
2022-09-14T00:35:38.315Z,7.28
2022-09-14T00:37:11.692Z,8.68
2022-09-14T00:40:15.762Z,7.78
2022-09-14T00:41:49.332Z,7.85
2022-09-14T00:43:21.270Z,6.97
2022-09-14T00:44:55.268Z,7.70
2022-09-14T00:46:31.738Z,7.60
2022-09-14T00:48:03.937Z,7.53
2022-09-14T00:49:41.127Z,10.13
2022-09-14T00:51:14.130Z,7.65
2022-09-14T00:52:48.943Z,7.97
2022-09-14T00:54:21.254Z,6.82
2022-09-14T00:55:54.425Z,7.28
2022-09-14T00:57:28.393Z,7.20
2022-09-14T00:59:03.867Z,6.70
2022-09-14T01:00:35.759Z,7.68
2022-09-14T01:02:09.568Z,7.97
2022-09-14T01:03:41.681Z,7.47
2022-09-14T01:05:15.074Z,7.55
2022-09-14T01:08:52.345Z,7.28
2022-09-14T01:11:02.754Z,6.68
2022-09-14T01:12:52.805Z,7.28
2022-09-14T01:14:28.686Z,7.28
2022-09-14T01:16:08.198Z,8.27
2022-09-14T01:17:55.080Z,7.05
2022-09-14T01:20:05.672Z,7.68
2022-09-14T01:21:42.401Z,7.80
2022-09-14T01:23:26.400Z,9.13
2022-09-14T01:26:53.305Z,7.43
2022-09-14T01:28:50.331Z,6.80
2022-09-14T01:30:23.561Z,8.52
2022-09-14T01:32:28.183Z,8.25
2022-09-14T01:34:14.786Z,9.05
2022-09-14T01:35:55.905Z,7.85
2022-09-14T01:37:33.914Z,7.50
2022-09-14T01:39:07.122Z,6.60
2022-09-14T01:40:50.045Z,8.45
2022-09-14T01:42:23.275Z,7.88
2022-09-14T01:44:28.341Z,7.45
2022-09-14T01:46:05.596Z,8.23
2022-09-14T01:47:42.167Z,9.45
2022-09-14T01:49:18.371Z,7.70
2022-09-14T01:50:58.469Z,9.50
2022-09-14T01:52:43.915Z,7.72
2022-09-14T01:54:48.798Z,8.00
2022-09-14T01:58:38.350Z,7.85
2022-09-14T02:02:03.662Z,7.20
2022-09-14T02:03:43.016Z,6.30
2022-09-14T02:05:51.745Z,6.60
2022-09-14T02:07:24.391Z,7.88
2022-09-14T02:08:56.633Z,6.57
2022-09-14T02:10:29.585Z,6.50
2022-09-14T02:12:01.789Z,7.32
2022-09-14T02:13:33.948Z,7.22
2022-09-14T02:15:07.754Z,7.57
2022-09-14T02:16:43.724Z,6.97
2022-09-14T02:18:15.805Z,6.88
2022-09-14T02:19:52.272Z,8.35
2022-09-14T02:21:29.913Z,6.85
2022-09-14T02:23:01.960Z,6.70
2022-09-14T02:24:34.453Z,7.00
2022-09-14T02:26:06.927Z,7.43
2022-09-14T02:27:38.892Z,8.00
2022-09-14T02:31:10.228Z,7.18
2022-09-14T02:33:11.387Z,7.00
2022-09-14T02:34:59.592Z,6.55
2022-09-14T02:36:55.909Z,8.23
2022-09-14T02:38:30.863Z,7.38
2022-09-14T02:40:20.755Z,7.32
2022-09-14T02:42:28.019Z,7.95
2022-09-14T02:44:22.988Z,7.10
2022-09-14T02:46:25.254Z,7.50
2022-09-14T02:48:00.313Z,7.90
2022-09-14T02:49:53.507Z,6.90
2022-09-14T02:51:55.131Z,7.63
2022-09-14T02:53:44.959Z,7.00
2022-09-14T02:55:20.626Z,6.63
2022-09-14T02:56:52.563Z,6.22
2022-09-14T02:58:24.768Z,7.32
2022-09-14T02:59:56.746Z,7.30
2022-09-14T03:01:28.763Z,6.40
2022-09-14T03:03:00.704Z,8.82
2022-09-14T03:04:32.799Z,7.88
2022-09-14T03:06:05.591Z,7.07
2022-09-14T03:07:37.539Z,8.60
2022-09-14T03:09:09.532Z,6.80
2022-09-14T03:10:45.821Z,6.95
2022-09-14T03:12:18.630Z,7.38
2022-09-14T03:13:50.678Z,6.32
2022-09-14T03:15:22.905Z,6.78
2022-09-14T03:16:54.894Z,6.90
2022-09-14T03:18:26.893Z,8.00
2022-09-14T03:19:58.861Z,6.72
2022-09-14T03:21:30.897Z,7.47
2022-09-14T03:23:05.155Z,6.60
2022-09-14T03:24:37.599Z,6.32
2022-09-14T03:26:14.274Z,7.20
2022-09-14T03:27:53.788Z,6.20
2022-09-14T03:29:25.875Z,7.47
2022-09-14T03:31:02.048Z,6.72
2022-09-14T03:32:34.330Z,7.40
2022-09-14T03:35:39.079Z,7.05
2022-09-14T03:37:11.146Z,7.38
2022-09-14T03:38:45.045Z,7.53
2022-09-14T03:40:21.580Z,6.55
2022-09-14T03:41:53.955Z,5.97
2022-09-14T03:43:27.151Z,6.80
2022-09-14T03:44:59.370Z,7.13
2022-09-14T03:46:31.434Z,7.40
2022-09-14T03:48:03.496Z,7.20
2022-09-14T03:49:35.784Z,7.35
2022-09-14T03:51:09.278Z,8.32
2022-09-14T03:54:13.179Z,8.40
2022-09-14T03:55:45.368Z,7.07
2022-09-14T03:57:17.365Z,7.20
2022-09-14T03:58:49.973Z,8.63
2022-09-14T04:00:22.182Z,8.38
2022-09-14T04:01:54.426Z,7.03
2022-09-14T04:03:26.404Z,9.30
2022-09-14T04:04:58.760Z,7.60
2022-09-14T04:06:30.792Z,8.23
2022-09-14T04:08:03.033Z,7.15
2022-09-14T04:09:35.004Z,7.15
2022-09-14T04:11:15.565Z,9.82
2022-09-14T04:12:47.853Z,7.15
2022-09-14T04:14:19.979Z,11.82
2022-09-14T04:15:59.251Z,7.38
2022-09-14T04:17:31.315Z,7.00
2022-09-14T04:19:04.128Z,6.97
2022-09-14T04:20:36.133Z,8.10
2022-09-14T04:22:11.328Z,7.70
2022-09-14T04:24:10.093Z,7.35
2022-09-14T04:25:36.184Z,6.68
2022-09-14T04:27:08.243Z,7.15
2022-09-14T04:28:40.817Z,6.40
2022-09-14T04:30:14.054Z,6.93
2022-09-14T04:31:46.138Z,8.25
2022-09-14T04:33:18.334Z,7.95
2022-09-14T04:34:50.961Z,6.78
2022-09-14T04:36:26.199Z,8.07
2022-09-14T04:37:58.255Z,7.32
2022-09-14T04:39:30.626Z,7.70
2022-09-14T04:41:06.412Z,6.95
2022-09-14T04:42:38.413Z,8.20
2022-09-14T04:44:10.471Z,7.25
2022-09-14T04:45:42.492Z,8.98
2022-09-14T04:47:14.573Z,6.63
2022-09-14T04:48:46.838Z,8.15
2022-09-14T04:50:18.815Z,8.50
2022-09-14T04:51:51.052Z,7.80
2022-09-14T04:53:23.073Z,7.95
2022-09-14T04:54:55.066Z,7.40
2022-09-14T04:56:28.289Z,8.40
2022-09-14T04:58:00.295Z,7.60
2022-09-14T04:59:32.715Z,7.20
2022-09-14T05:01:06.554Z,7.15
2022-09-14T05:04:27.032Z,8.73
2022-09-14T05:06:03.303Z,7.00
2022-09-14T05:07:35.308Z,8.25
2022-09-14T05:09:11.449Z,7.05
2022-09-14T05:10:43.779Z,7.45
2022-09-14T05:12:15.801Z,8.23
2022-09-14T05:13:50.533Z,7.30
2022-09-14T05:15:22.790Z,8.30
2022-09-14T05:16:56.936Z,8.18
2022-09-14T05:18:29.036Z,10.77
2022-09-14T05:20:01.237Z,7.70
2022-09-14T05:21:35.417Z,8.93
2022-09-14T05:23:07.423Z,8.07
2022-09-14T05:24:39.418Z,7.32
2022-09-14T05:26:11.901Z,6.80
2022-09-14T05:27:43.908Z,7.20
2022-09-14T05:29:18.591Z,8.65
2022-09-14T05:30:50.789Z,7.40
2022-09-14T05:32:22.913Z,8.05
2022-09-14T05:33:55.128Z,7.78
2022-09-14T05:35:27.211Z,8.00
2022-09-14T05:36:59.339Z,7.32
2022-09-14T05:38:32.526Z,6.93
2022-09-14T05:40:06.410Z,7.88
2022-09-14T05:41:38.926Z,8.50
2022-09-14T05:43:11.203Z,8.20
2022-09-14T05:44:43.583Z,8.98
2022-09-14T05:46:17.842Z,8.45
2022-09-14T05:47:49.933Z,8.73
2022-09-14T05:49:21.983Z,7.85
2022-09-14T05:51:07.816Z,7.30
2022-09-14T05:52:39.810Z,8.57
2022-09-14T05:54:12.552Z,7.18
2022-09-14T05:55:46.954Z,8.05
2022-09-14T05:57:19.098Z,7.70
2022-09-14T05:58:51.256Z,7.75
2022-09-14T06:00:23.507Z,8.02
2022-09-14T06:01:56.083Z,6.85
2022-09-14T06:03:28.477Z,8.63
2022-09-14T06:05:01.000Z,8.18
2022-09-14T06:06:33.856Z,7.47
2022-09-14T06:08:06.321Z,7.60
2022-09-14T06:09:38.497Z,7.75
2022-09-14T06:11:14.023Z,7.57
2022-09-14T06:12:46.191Z,7.88
2022-09-14T06:14:20.368Z,7.00
2022-09-14T06:15:52.689Z,9.18
2022-09-14T06:17:25.152Z,8.98
2022-09-14T06:18:58.997Z,7.33
2022-09-14T06:20:31.213Z,7.22
2022-09-14T06:22:03.276Z,8.00
2022-09-14T06:23:35.891Z,7.82
2022-09-14T06:25:08.583Z,12.38
2022-09-14T06:26:41.288Z,6.57
2022-09-14T06:28:13.581Z,8.68
2022-09-14T06:29:45.661Z,8.68
2022-09-14T06:31:19.337Z,7.85
2022-09-14T06:32:51.374Z,9.27
2022-09-14T06:34:23.662Z,7.18
2022-09-14T06:36:00.817Z,7.45
2022-09-14T06:37:32.906Z,6.90
2022-09-14T06:39:05.073Z,8.35
2022-09-14T06:40:37.110Z,7.20
2022-09-14T06:42:09.513Z,8.55
2022-09-14T06:43:43.364Z,6.65
2022-09-14T06:45:15.630Z,6.43
2022-09-14T06:46:47.833Z,7.25
2022-09-14T06:48:19.951Z,9.95
2022-09-14T06:49:52.617Z,6.68
2022-09-14T06:51:33.847Z,7.68
2022-09-14T06:53:06.642Z,6.45
2022-09-14T06:54:38.775Z,6.85
2022-09-14T06:56:14.649Z,7.22
2022-09-14T06:57:48.667Z,9.45
2022-09-14T06:59:20.958Z,6.43
2022-09-14T07:00:52.972Z,6.32
2022-09-14T07:02:25.041Z,8.38
2022-09-14T07:03:58.581Z,8.07
2022-09-14T07:05:31.463Z,7.35
2022-09-14T07:07:03.461Z,7.03
2022-09-14T07:08:36.222Z,7.68
2022-09-14T07:10:12.101Z,7.45
2022-09-14T07:11:44.793Z,7.85
2022-09-14T07:13:17.282Z,8.65
2022-09-14T07:14:49.437Z,6.72
2022-09-14T07:17:54.413Z,5.38
2022-09-14T07:19:26.833Z,6.80
2022-09-14T07:21:13.596Z,5.93
2022-09-14T07:22:46.072Z,6.30
2022-09-14T07:24:18.409Z,5.10
2022-09-14T07:26:03.451Z,6.22
2022-09-14T07:27:36.502Z,6.95
2022-09-14T07:29:12.428Z,6.75
2022-09-14T07:30:44.731Z,7.00
2022-09-14T07:32:17.043Z,6.27
2022-09-14T07:33:55.344Z,6.78
2022-09-14T07:35:27.722Z,5.75
2022-09-14T07:37:00.083Z,5.87
2022-09-14T07:38:51.032Z,5.87
2022-09-14T07:40:27.927Z,6.22
2022-09-14T07:42:00.804Z,4.72
2022-09-14T07:43:32.979Z,6.40
2022-09-14T07:45:06.767Z,6.80
2022-09-14T07:46:41.137Z,6.70
2022-09-14T07:48:13.542Z,5.35
2022-09-14T07:49:45.988Z,5.97
2022-09-14T07:52:52.275Z,4.88
2022-09-14T07:54:24.659Z,6.82
2022-09-14T07:56:02.401Z,4.13
2022-09-14T07:57:55.200Z,5.15
2022-09-14T07:59:42.036Z,7.47
2022-09-14T08:01:20.272Z,5.30
2022-09-14T08:02:54.221Z,5.93
2022-09-14T08:04:26.612Z,4.95
2022-09-14T08:06:03.372Z,5.37
2022-09-14T08:07:36.072Z,6.57
2022-09-14T08:09:11.589Z,5.80
2022-09-14T08:10:43.654Z,5.00
2022-09-14T08:12:18.606Z,10.18
2022-09-14T08:13:53.576Z,16.02
2022-09-14T08:15:28.575Z,9.40
2022-09-14T08:17:01.774Z,6.22
2022-09-14T08:18:36.182Z,5.95
2022-09-14T08:20:08.784Z,4.57
2022-09-14T08:21:46.179Z,6.93
2022-09-14T08:23:19.295Z,5.50
2022-09-14T08:24:51.618Z,6.50
2022-09-14T08:26:24.716Z,5.65
2022-09-14T08:27:56.977Z,5.22
2022-09-14T08:29:29.324Z,5.60
2022-09-14T08:31:06.443Z,6.13
2022-09-14T08:32:38.928Z,4.70
2022-09-14T08:34:12.151Z,5.43
2022-09-14T08:37:30.428Z,5.68
2022-09-14T08:39:02.966Z,3.60
2022-09-14T08:40:35.314Z,8.07
2022-09-14T08:42:15.526Z,6.90
2022-09-14T08:43:47.659Z,7.22
2022-09-14T08:45:19.745Z,6.05
2022-09-14T08:47:03.102Z,7.80
2022-09-14T08:48:42.542Z,4.88
2022-09-14T08:50:20.204Z,6.40
2022-09-14T08:51:52.675Z,4.20
2022-09-14T08:53:25.807Z,5.18
2022-09-14T08:55:00.350Z,9.35
2022-09-14T08:56:34.083Z,8.40
2022-09-14T08:58:32.152Z,9.65
2022-09-14T09:00:09.076Z,8.07
2022-09-14T09:01:50.216Z,6.00
2022-09-14T09:03:39.235Z,8.32
2022-09-14T09:05:36.310Z,7.03
2022-09-14T09:07:23.592Z,4.88
2022-09-14T09:09:40.487Z,6.03
2022-09-14T09:11:18.802Z,5.75
2022-09-14T09:12:59.366Z,8.05
2022-09-14T09:14:36.574Z,6.25
2022-09-14T09:16:11.345Z,7.97
2022-09-14T09:17:47.162Z,4.97
2022-09-14T09:19:43.372Z,5.68
2022-09-14T09:21:42.699Z,5.97
2022-09-14T09:23:17.388Z,6.10
2022-09-14T09:24:55.053Z,4.82
2022-09-14T09:26:32.079Z,5.55
2022-09-14T09:28:12.969Z,4.10
2022-09-14T09:29:45.115Z,4.82
2022-09-14T09:31:20.345Z,7.35
2022-09-14T09:32:52.775Z,6.32
2022-09-14T09:34:30.219Z,4.65
2022-09-14T09:36:02.540Z,7.95
2022-09-14T09:37:38.789Z,4.17
2022-09-14T09:39:10.866Z,5.53
2022-09-14T09:40:47.805Z,5.38
2022-09-14T09:42:26.772Z,6.50
2022-09-14T09:44:07.177Z,8.50
2022-09-14T09:45:58.674Z,7.45
2022-09-14T09:47:36.632Z,5.88
2022-09-14T09:49:22.526Z,5.80
2022-09-14T09:51:24.237Z,5.88
2022-09-14T09:53:03.265Z,7.18
2022-09-14T09:54:39.912Z,4.95
2022-09-14T09:56:21.950Z,11.93
2022-09-14T09:57:55.254Z,4.00
2022-09-14T09:59:42.850Z,5.72
2022-09-14T10:01:41.389Z,5.47
2022-09-14T10:03:28.892Z,3.67
2022-09-14T10:05:10.149Z,6.00
2022-09-14T10:06:44.726Z,6.60
2022-09-14T10:08:19.431Z,5.50
2022-09-14T10:10:01.835Z,4.78
2022-09-14T10:11:38.505Z,5.25
2022-09-14T10:13:29.456Z,4.22
2022-09-14T10:15:20.968Z,4.70
2022-09-14T10:16:53.437Z,4.68
2022-09-14T10:18:27.307Z,4.63
2022-09-14T10:20:02.240Z,4.35
2022-09-14T10:21:34.444Z,4.80
2022-09-14T10:23:23.531Z,7.57
2022-09-14T10:25:02.709Z,3.58
2022-09-14T10:26:38.381Z,4.78
2022-09-14T10:28:19.984Z,3.97
2022-09-14T10:29:55.523Z,3.97
2022-09-14T10:31:31.673Z,4.55
2022-09-14T10:33:07.624Z,6.88
2022-09-14T10:34:40.073Z,4.60
2022-09-14T10:36:23.962Z,3.42
2022-09-14T10:38:16.334Z,9.05
2022-09-14T10:40:16.129Z,5.57
2022-09-14T10:42:35.357Z,8.13
2022-09-14T10:44:46.155Z,4.72
2022-09-14T10:46:23.110Z,4.82
2022-09-14T10:48:06.598Z,4.28
2022-09-14T10:51:32.508Z,4.22
2022-09-14T10:53:24.159Z,4.18
2022-09-14T10:55:14.197Z,3.30
2022-09-14T10:56:46.726Z,3.88
2022-09-14T10:58:49.030Z,3.20
2022-09-14T11:00:21.686Z,3.55
2022-09-14T11:02:01.992Z,6.90
2022-09-14T11:03:45.219Z,5.07
2022-09-14T11:05:36.980Z,3.63
2022-09-14T11:07:29.953Z,4.45
2022-09-14T11:09:19.499Z,3.05
2022-09-14T11:11:09.344Z,3.78
2022-09-14T11:13:31.234Z,4.78
2022-09-14T11:15:35.784Z,3.65
2022-09-14T11:17:19.831Z,4.13
2022-09-14T11:19:17.413Z,7.20
2022-09-14T11:21:10.066Z,3.97
2022-09-14T11:22:57.659Z,6.35
2022-09-14T11:24:41.198Z,4.97
2022-09-14T11:28:00.286Z,3.22
2022-09-14T11:29:33.851Z,4.95
2022-09-14T11:31:07.860Z,3.63
2022-09-14T11:32:49.469Z,3.83
2022-09-14T11:34:26.842Z,4.18
2022-09-14T11:36:13.387Z,3.67
2022-09-14T11:37:55.940Z,3.40
2022-09-14T11:39:43.905Z,3.17
2022-09-14T11:41:48.067Z,5.90
2022-09-14T11:43:31.611Z,4.43
2022-09-14T11:46:52.886Z,4.28
2022-09-14T11:48:43.638Z,3.97
2022-09-14T11:50:26.438Z,3.10
2022-09-14T11:52:16.568Z,2.95
2022-09-14T11:53:49.268Z,3.15
2022-09-14T11:55:21.524Z,5.07
2022-09-14T11:57:03.895Z,4.95
2022-09-14T11:58:36.609Z,3.83
2022-09-14T12:00:33.859Z,3.80
2022-09-14T12:02:24.068Z,3.90
2022-09-14T12:04:02.118Z,3.15
2022-09-14T12:05:35.686Z,5.63
2022-09-14T12:07:07.900Z,3.55
2022-09-14T12:08:40.895Z,3.33
2022-09-14T12:10:15.831Z,3.53
2022-09-14T12:11:52.948Z,4.95
2022-09-14T12:13:25.537Z,3.95
2022-09-14T12:15:00.340Z,3.17
2022-09-14T12:16:34.713Z,4.88
2022-09-14T12:18:07.186Z,6.00
2022-09-14T12:19:42.222Z,4.72
2022-09-14T12:21:26.324Z,3.90
2022-09-14T12:23:25.911Z,4.63
2022-09-14T12:25:11.398Z,3.92
2022-09-14T12:26:43.697Z,4.65
2022-09-14T12:28:31.110Z,4.82
2022-09-14T12:30:55.097Z,3.35
2022-09-14T12:32:39.956Z,3.72
2022-09-14T12:34:20.159Z,4.45
2022-09-14T12:35:52.376Z,4.15
2022-09-14T12:37:31.094Z,4.00
2022-09-14T12:39:03.378Z,4.43
2022-09-14T12:40:37.840Z,4.88
2022-09-14T12:42:30.301Z,4.05
2022-09-14T12:44:02.525Z,4.03
2022-09-14T12:45:52.676Z,3.83
2022-09-14T12:47:24.876Z,3.10
2022-09-14T12:49:05.948Z,3.90
2022-09-14T12:50:38.821Z,5.65
2022-09-14T12:52:35.054Z,3.03
2022-09-14T12:54:12.324Z,2.28
2022-09-14T12:55:56.986Z,6.00
2022-09-14T12:58:13.486Z,5.07
2022-09-14T12:59:57.807Z,3.90
2022-09-14T13:01:30.108Z,4.13
2022-09-14T13:03:15.353Z,4.13
2022-09-14T13:04:48.273Z,4.05
2022-09-14T13:06:21.574Z,4.00
2022-09-14T13:07:55.060Z,3.72
2022-09-14T13:09:29.182Z,2.85
2022-09-14T13:11:01.540Z,3.60
2022-09-14T13:12:39.623Z,3.35
2022-09-14T13:14:17.725Z,3.80
2022-09-14T13:15:52.001Z,4.40
2022-09-14T13:17:25.091Z,5.00
2022-09-14T13:20:35.450Z,4.60
2022-09-14T13:22:23.321Z,3.17
2022-09-14T13:23:55.629Z,6.47
2022-09-14T13:25:36.728Z,4.00
2022-09-14T13:28:44.735Z,7.10
2022-09-14T13:30:25.637Z,3.83
2022-09-14T13:32:03.257Z,5.75
2022-09-14T13:33:36.471Z,3.53
2022-09-14T13:35:21.096Z,4.25
2022-09-14T13:36:53.807Z,13.60
2022-09-14T13:38:37.448Z,2.97
2022-09-14T13:40:10.121Z,3.53
2022-09-14T13:41:45.321Z,5.20
2022-09-14T13:43:18.950Z,3.90
2022-09-14T13:44:51.487Z,4.55
2022-09-14T13:46:25.184Z,3.65
2022-09-14T13:47:57.846Z,3.92
2022-09-14T13:49:30.482Z,3.75
2022-09-14T13:51:02.795Z,5.53
2022-09-14T13:54:30.713Z,3.67
2022-09-14T13:58:08.295Z,3.50
2022-09-14T14:00:14.680Z,7.03
2022-09-14T14:01:47.009Z,4.82
2022-09-14T14:03:58.888Z,3.85
2022-09-14T14:05:34.237Z,4.97
2022-09-14T14:07:16.766Z,4.97
2022-09-14T14:09:10.348Z,2.65
2022-09-14T14:10:46.818Z,3.35
2022-09-14T14:12:39.835Z,4.40
2022-09-14T14:14:13.770Z,4.97
2022-09-14T14:15:46.143Z,4.90
2022-09-14T15:06:52.461Z,4.32
2022-09-14T15:08:24.824Z,4.43
2022-09-14T15:10:00.027Z,4.75
2022-09-14T15:11:32.672Z,4.55
2022-09-14T15:13:05.421Z,3.95
2022-09-14T15:14:37.641Z,4.82
2022-09-14T15:16:09.983Z,3.50
2022-09-14T15:17:42.862Z,4.60
2022-09-14T15:19:15.425Z,3.25
2022-09-14T15:20:47.746Z,2.97
2022-09-14T15:22:20.307Z,4.13
2022-09-14T15:23:52.810Z,4.10
2022-09-14T15:25:25.176Z,2.90
2022-09-14T15:26:58.068Z,3.22
2022-09-14T15:28:31.185Z,4.97
2022-09-14T15:30:04.132Z,2.78
2022-09-14T15:33:08.879Z,5.00
2022-09-14T15:34:41.774Z,5.17
2022-09-14T15:36:14.421Z,3.95
2022-09-14T15:37:48.064Z,6.40
2022-09-14T15:39:22.791Z,4.35
2022-09-14T15:40:54.906Z,5.32
2022-09-14T15:42:27.573Z,6.97
2022-09-14T15:43:59.909Z,4.88
2022-09-14T15:45:32.262Z,4.10
2022-09-14T15:47:04.850Z,5.50
2022-09-14T15:48:37.165Z,3.72
2022-09-14T15:50:09.896Z,5.88
2022-09-14T15:51:43.216Z,5.18
2022-09-14T15:53:16.722Z,4.88
2022-09-14T15:54:49.591Z,6.18
2022-09-14T15:56:22.094Z,5.65
2022-09-14T15:57:54.143Z,4.25
2022-09-14T15:59:27.414Z,5.65
2022-09-14T16:00:59.674Z,10.27
2022-09-14T16:02:31.786Z,5.15
2022-09-14T16:04:09.637Z,4.85
2022-09-14T16:05:43.917Z,5.88
2022-09-14T16:07:15.991Z,10.75
2022-09-14T16:08:48.097Z,5.07
2022-09-14T16:11:53.131Z,6.18
2022-09-14T16:13:25.506Z,5.30
2022-09-14T16:14:57.868Z,5.50
2022-09-14T16:16:31.766Z,5.97
2022-09-14T16:18:04.290Z,7.07
2022-09-14T16:19:36.666Z,8.95
2022-09-14T16:21:31.006Z,7.55
2022-09-14T16:23:03.060Z,5.55
2022-09-14T16:24:35.258Z,8.48
2022-09-14T16:26:14.897Z,6.38
2022-09-14T16:27:47.086Z,7.28
2022-09-14T16:29:21.021Z,5.82
2022-09-14T16:30:53.454Z,5.35
2022-09-14T16:32:25.899Z,6.70
2022-09-14T16:34:01.466Z,7.13
2022-09-14T16:35:33.737Z,4.68
2022-09-14T16:37:06.466Z,9.23
2022-09-14T16:38:39.066Z,6.00
2022-09-14T16:40:13.287Z,10.98
2022-09-14T16:41:45.742Z,8.13
2022-09-14T16:43:17.946Z,11.48
2022-09-14T16:44:50.346Z,7.43
2022-09-14T16:46:23.297Z,7.53
2022-09-14T16:47:55.557Z,11.40
2022-09-14T16:49:30.995Z,8.90
2022-09-14T16:51:04.478Z,8.50
2022-09-14T16:52:36.728Z,7.43
2022-09-14T16:54:09.894Z,8.30
2022-09-14T16:57:14.226Z,10.65
2022-09-14T16:58:47.964Z,9.33
2022-09-14T17:00:20.371Z,12.52
2022-09-14T17:01:54.963Z,10.23
2022-09-14T17:03:31.749Z,9.60
2022-09-14T17:05:04.419Z,9.98
2022-09-14T17:06:39.026Z,8.65
2022-09-14T17:08:11.869Z,8.75
2022-09-14T17:09:44.588Z,7.93
2022-09-14T17:11:17.784Z,10.23
2022-09-14T17:12:50.090Z,12.23
2022-09-14T17:16:07.575Z,8.90
2022-09-14T17:17:39.655Z,10.60
2022-09-14T17:19:12.799Z,9.13
2022-09-14T17:22:37.464Z,10.32
2022-09-14T17:24:10.234Z,6.80
2022-09-14T17:25:42.754Z,11.48
2022-09-14T17:27:15.171Z,9.20
2022-09-14T17:28:50.256Z,8.82
2022-09-14T17:30:22.773Z,9.60
2022-09-14T17:31:56.480Z,9.37
2022-09-14T17:33:29.888Z,8.32
2022-09-14T17:35:03.184Z,8.45
2022-09-14T17:38:07.505Z,8.18
2022-09-14T17:39:39.826Z,9.20
2022-09-14T17:41:15.825Z,10.48
2022-09-14T17:42:48.204Z,9.70
2022-09-14T17:44:20.738Z,7.10
2022-09-14T17:45:58.065Z,9.90
2022-09-14T17:47:30.029Z,9.27
2022-09-14T17:49:04.970Z,7.03
2022-09-14T17:50:39.851Z,8.07
2022-09-14T17:52:11.927Z,10.23
2022-09-14T17:53:45.402Z,9.68
2022-09-14T17:55:18.472Z,9.63
2022-09-14T17:56:50.809Z,9.60
2022-09-14T17:58:22.905Z,7.77
2022-09-14T17:59:55.085Z,6.50
2022-09-14T18:01:27.438Z,8.82
2022-09-14T18:02:59.898Z,10.40
2022-09-14T18:04:32.178Z,10.10
2022-09-14T18:06:06.160Z,8.73
2022-09-14T18:07:38.494Z,6.78
2022-09-14T18:09:14.505Z,10.13
2022-09-14T18:10:46.863Z,8.55
2022-09-14T18:12:20.490Z,8.57
2022-09-14T18:13:52.786Z,9.32
2022-09-14T18:15:25.288Z,8.77
2022-09-14T18:17:00.277Z,8.47
2022-09-14T18:18:32.654Z,10.48
2022-09-14T18:20:06.315Z,9.50
2022-09-14T18:21:39.351Z,8.68
2022-09-14T18:23:11.830Z,9.98
2022-09-14T18:24:44.530Z,7.90
2022-09-14T18:26:17.401Z,10.55
2022-09-14T18:27:52.573Z,9.05
2022-09-14T18:29:25.103Z,8.80
2022-09-14T18:31:09.409Z,8.20
2022-09-14T18:32:41.749Z,9.60
2022-09-14T18:34:14.067Z,9.48
2022-09-14T18:35:46.546Z,6.25
2022-09-14T18:37:18.862Z,9.38
2022-09-14T18:38:53.287Z,8.25
2022-09-14T18:40:25.523Z,8.52
2022-09-14T18:41:57.963Z,7.50
2022-09-14T18:43:30.208Z,9.00
2022-09-14T18:45:02.462Z,8.07
2022-09-14T18:46:35.123Z,7.78
2022-09-14T18:48:07.506Z,7.63
2022-09-14T18:49:39.832Z,10.10
2022-09-14T18:51:14.103Z,10.40
2022-09-14T18:52:46.737Z,8.25
2022-09-14T18:54:19.158Z,13.02
2022-09-14T18:55:51.397Z,10.60
2022-09-14T18:57:24.078Z,10.35
2022-09-14T18:58:56.931Z,8.48
2022-09-14T19:00:29.357Z,10.18
2022-09-14T19:02:01.385Z,9.17
2022-09-14T19:03:34.376Z,10.15
2022-09-14T19:05:06.828Z,11.73
2022-09-14T19:06:41.585Z,12.60
2022-09-14T19:08:14.701Z,7.07
2022-09-14T19:09:47.299Z,8.93
2022-09-14T19:11:23.013Z,7.70
2022-09-14T19:12:58.292Z,8.57
2022-09-14T19:14:30.754Z,7.43
2022-09-14T19:16:14.984Z,10.07
2022-09-14T19:17:47.395Z,7.97
2022-09-14T19:19:19.679Z,8.32
2022-09-14T19:21:05.970Z,10.70
2022-09-14T19:22:38.795Z,11.50
2022-09-14T19:24:13.652Z,7.35
2022-09-14T19:25:45.791Z,7.68
2022-09-14T19:27:18.168Z,9.10
2022-09-14T19:28:50.414Z,7.72
2022-09-14T19:30:22.969Z,7.00
2022-09-14T19:31:55.520Z,8.95
2022-09-14T19:33:27.639Z,8.63
2022-09-14T19:34:59.640Z,7.38
2022-09-14T19:36:35.138Z,8.68
2022-09-14T19:38:07.154Z,10.25
2022-09-14T19:39:42.647Z,7.18
2022-09-14T19:41:15.203Z,9.25
2022-09-14T19:42:47.500Z,9.32
2022-09-14T19:44:20.152Z,7.55
2022-09-14T19:45:52.370Z,6.50
2022-09-14T19:48:56.607Z,8.73
2022-09-14T19:50:28.878Z,8.80
2022-09-14T19:52:00.950Z,8.57
2022-09-14T19:53:34.454Z,5.82
2022-09-14T19:55:06.904Z,10.63
2022-09-14T19:56:39.497Z,8.33
2022-09-14T19:58:11.619Z,7.50
2022-09-14T19:59:43.620Z,6.75
2022-09-14T20:01:17.433Z,7.97
2022-09-14T20:02:49.613Z,7.88
2022-09-14T20:04:24.428Z,7.82
2022-09-14T20:06:04.453Z,8.50
2022-09-14T20:07:36.640Z,6.35
2022-09-14T20:09:09.866Z,7.88
2022-09-14T20:10:42.009Z,6.95
2022-09-14T20:12:13.994Z,7.43
2022-09-14T20:13:46.095Z,6.22
2022-09-14T20:15:18.355Z,8.73
2022-09-14T20:16:53.009Z,6.78
2022-09-14T20:18:25.711Z,6.78
2022-09-14T20:19:57.774Z,5.85
2022-09-14T20:21:38.890Z,8.95
2022-09-14T20:23:10.956Z,6.75
2022-09-14T20:24:43.113Z,8.13
2022-09-14T20:26:16.156Z,9.77
2022-09-14T20:27:48.376Z,6.97
2022-09-14T20:29:23.033Z,7.65
2022-09-14T20:30:59.527Z,7.97
2022-09-14T20:32:31.932Z,8.27
2022-09-14T20:34:04.026Z,5.80
2022-09-14T20:35:37.132Z,7.68
2022-09-14T20:37:09.193Z,7.35
2022-09-14T20:38:50.106Z,9.43
2022-09-14T20:40:22.509Z,7.53
2022-09-14T20:41:54.864Z,6.38
2022-09-14T20:43:27.513Z,8.25
2022-09-14T20:44:59.470Z,6.53
2022-09-14T20:46:35.449Z,6.00
2022-09-14T20:48:07.650Z,8.40
2022-09-14T20:49:39.654Z,7.80
2022-09-14T20:51:11.816Z,13.52
2022-09-14T20:52:43.817Z,7.13
2022-09-14T20:54:17.702Z,7.10
2022-09-14T20:55:50.295Z,7.22
2022-09-14T20:57:24.486Z,8.35
2022-09-14T20:59:03.846Z,6.60
2022-09-14T21:00:35.877Z,7.25
2022-09-14T21:02:08.233Z,8.57
2022-09-14T21:03:42.430Z,7.57
2022-09-14T21:05:14.583Z,6.88
2022-09-14T21:06:55.504Z,7.75
2022-09-14T21:08:28.968Z,6.75
2022-09-14T21:10:01.121Z,7.68
2022-09-14T21:11:33.481Z,7.10
2022-09-14T21:13:05.591Z,7.93
2022-09-14T21:14:37.639Z,7.93
2022-09-14T21:16:11.208Z,7.20
2022-09-14T21:17:43.310Z,8.25
2022-09-14T21:19:19.673Z,9.95
2022-09-14T21:20:51.753Z,6.63
2022-09-14T21:22:23.845Z,6.63
2022-09-14T21:23:57.274Z,8.75
2022-09-14T21:25:29.535Z,6.28
2022-09-14T21:27:01.743Z,8.07
2022-09-14T21:28:35.164Z,8.07
2022-09-14T21:30:08.381Z,7.47
2022-09-14T21:31:40.423Z,8.50
2022-09-14T21:33:12.487Z,7.05
2022-09-14T21:34:46.557Z,7.15
2022-09-14T21:36:21.859Z,8.57
2022-09-14T21:37:53.878Z,7.97
2022-09-14T21:39:28.830Z,7.65
2022-09-14T21:41:01.371Z,7.53
2022-09-14T21:42:33.362Z,6.88
2022-09-14T21:44:05.730Z,7.10
2022-09-14T21:45:44.960Z,7.70
2022-09-14T21:47:16.968Z,7.70
2022-09-14T21:48:49.094Z,9.50
2022-09-14T21:52:01.138Z,8.00
2022-09-14T21:53:33.965Z,11.52
2022-09-14T21:55:06.380Z,10.95
2022-09-14T21:56:40.356Z,12.27
2022-09-14T21:58:12.357Z,9.50
2022-09-14T21:59:44.440Z,14.68
2022-09-14T22:01:16.711Z,9.13
2022-09-14T22:02:48.882Z,9.32
2022-09-14T22:04:23.839Z,9.32
2022-09-14T22:06:03.979Z,8.10
2022-09-14T22:07:36.019Z,11.15
2022-09-14T22:09:08.127Z,10.10
2022-09-14T22:10:40.766Z,7.25
2022-09-14T22:12:13.053Z,7.53
2022-09-14T22:13:45.270Z,7.68
2022-09-14T22:15:17.336Z,8.63
2022-09-14T22:16:49.473Z,8.23
2022-09-14T22:18:21.465Z,11.40
2022-09-14T22:19:55.278Z,10.25
2022-09-14T22:21:29.178Z,7.07
2022-09-14T22:23:02.145Z,7.72
2022-09-14T22:24:38.149Z,11.27
2022-09-14T22:26:12.136Z,9.07
2022-09-14T22:27:44.074Z,9.48
2022-09-14T22:29:16.958Z,9.77
2022-09-14T22:30:54.454Z,7.63
2022-09-14T22:32:26.560Z,7.45
2022-09-14T22:34:01.395Z,9.60
2022-09-14T22:35:33.654Z,10.55
2022-09-14T22:37:05.798Z,8.38
2022-09-14T22:38:39.525Z,7.07
2022-09-14T22:40:11.504Z,11.60
2022-09-14T22:41:43.601Z,8.20
2022-09-14T22:43:15.586Z,7.07
2022-09-14T22:44:47.520Z,8.25
2022-09-14T22:46:19.947Z,6.97
2022-09-14T22:47:51.989Z,10.00
2022-09-14T22:49:23.928Z,8.63
2022-09-14T22:50:56.796Z,7.72
2022-09-14T22:52:28.881Z,8.05
2022-09-14T22:54:01.183Z,7.68
2022-09-14T22:55:39.898Z,7.95